createdAt,value
2022-09-28T00:01:17.478Z,10.50
2022-09-28T00:03:48.120Z,8.90
2022-09-28T00:06:26.633Z,9.90
2022-09-28T00:08:55.035Z,10.10
2022-09-28T00:11:28.069Z,10.60
2022-09-28T00:14:02.307Z,9.80
2022-09-28T00:16:38.764Z,8.80
2022-09-28T00:19:08.229Z,9.30
2022-09-28T00:21:38.987Z,8.00
2022-09-28T00:24:30.457Z,9.50
2022-09-28T00:27:01.426Z,11.30
2022-09-28T00:29:35.451Z,8.60
2022-09-28T00:32:07.819Z,10.10
2022-09-28T00:34:40.667Z,14.70
2022-09-28T00:37:09.926Z,8.80
2022-09-28T00:39:41.233Z,8.40
2022-09-28T00:42:21.984Z,4.60
2022-09-28T00:44:59.874Z,5.80
2022-09-28T00:47:53.628Z,8.30
2022-09-28T00:50:28.851Z,7.20
2022-09-28T00:53:20.158Z,12.10
2022-09-28T00:58:27.460Z,12.90
2022-09-28T01:00:58.766Z,6.80
2022-09-28T01:03:28.650Z,10.30
2022-09-28T01:06:00.299Z,9.20
2022-09-28T01:08:31.285Z,8.90
2022-09-28T01:11:00.579Z,6.50
2022-09-28T01:13:32.602Z,11.00
2022-09-28T01:16:54.380Z,4.10
2022-09-28T01:20:12.500Z,6.80
2022-09-28T01:23:35.795Z,6.40
2022-09-28T01:26:25.033Z,10.40
2022-09-28T01:29:02.129Z,12.90
2022-09-28T01:31:35.870Z,10.70
2022-09-28T01:34:17.496Z,10.70
2022-09-28T01:39:29.438Z,12.10
2022-09-28T01:42:05.767Z,8.80
2022-09-28T01:44:41.741Z,9.00
2022-09-28T01:47:15.276Z,8.80
2022-09-28T01:50:16.200Z,3.70
2022-09-28T01:52:56.333Z,10.20
2022-09-28T01:55:40.079Z,10.10
2022-09-28T01:58:20.297Z,12.10
2022-09-28T02:00:56.335Z,9.30
2022-09-28T02:03:38.081Z,6.00
2022-09-28T02:08:54.646Z,8.30
2022-09-28T02:14:05.325Z,9.90
2022-09-28T02:16:41.791Z,9.80
2022-09-28T02:19:20.002Z,8.90
2022-09-28T02:22:25.539Z,7.10
2022-09-28T02:25:26.598Z,13.00
2022-09-28T02:28:06.579Z,9.70
2022-09-28T02:30:38.779Z,6.80
2022-09-28T02:33:15.393Z,10.60
2022-09-28T02:35:43.910Z,9.50
2022-09-28T02:38:14.296Z,9.50
2022-09-28T02:41:08.729Z,11.00
2022-09-28T02:43:58.442Z,8.40
2022-09-28T02:46:38.843Z,5.30
2022-09-28T02:49:37.305Z,7.60
2022-09-28T02:54:53.330Z,11.20
2022-09-28T02:57:49.429Z,15.30
2022-09-28T03:00:23.422Z,7.90
2022-09-28T03:03:33.047Z,14.90
2022-09-28T03:06:23.482Z,6.20
2022-09-28T03:09:07.126Z,10.70
2022-09-28T03:11:43.705Z,9.90
2022-09-28T03:14:12.098Z,11.00
2022-09-28T03:16:58.097Z,10.00
2022-09-28T03:19:31.854Z,10.10
2022-09-28T03:22:00.773Z,10.00
2022-09-28T03:24:28.659Z,7.70
2022-09-28T03:26:56.306Z,9.40
2022-09-28T03:29:24.066Z,10.20
2022-09-28T03:31:56.703Z,9.00
2022-09-28T03:34:24.385Z,10.10
2022-09-28T03:36:52.394Z,11.10
2022-09-28T03:39:20.193Z,5.80
2022-09-28T03:41:47.893Z,8.90
2022-09-28T03:44:16.270Z,10.00
2022-09-28T03:46:43.949Z,6.50
2022-09-28T03:49:11.783Z,9.20
2022-09-28T03:51:39.416Z,7.20
2022-09-28T03:54:07.046Z,9.20
2022-09-28T03:56:34.741Z,7.60
2022-09-28T03:59:05.379Z,8.70
2022-09-28T04:01:33.205Z,9.20
2022-09-28T04:04:01.215Z,7.40
2022-09-28T04:06:28.985Z,7.50
2022-09-28T04:08:57.092Z,12.00
2022-09-28T04:11:24.872Z,10.60
2022-09-28T04:13:52.520Z,7.20
2022-09-28T04:16:20.632Z,7.20
2022-09-28T04:18:59.154Z,6.90
2022-09-28T04:21:47.031Z,10.80
2022-09-28T04:24:15.673Z,10.20
2022-09-28T04:26:43.344Z,9.30
2022-09-28T04:29:16.305Z,4.60
2022-09-28T04:34:44.356Z,9.60
2022-09-28T04:37:12.592Z,9.20
2022-09-28T04:39:43.946Z,8.20
2022-09-28T04:42:14.226Z,8.40
2022-09-28T04:44:41.884Z,8.00
2022-09-28T04:47:10.337Z,7.30
2022-09-28T04:49:53.309Z,7.70
2022-09-28T04:52:27.258Z,8.40
2022-09-28T04:54:54.911Z,9.10
2022-09-28T04:57:23.566Z,5.50
2022-09-28T04:59:51.208Z,14.20
2022-09-28T05:02:19.301Z,9.90
2022-09-28T05:05:06.241Z,8.50
2022-09-28T05:07:49.473Z,11.70
2022-09-28T05:10:19.013Z,6.70
2022-09-28T05:12:46.879Z,8.70
2022-09-28T05:15:14.671Z,11.70
2022-09-28T05:17:42.396Z,9.00
2022-09-28T05:20:18.666Z,13.00
2022-09-28T05:22:46.722Z,6.90
2022-09-28T05:25:14.631Z,9.00
2022-09-28T05:27:57.934Z,10.10
2022-09-28T05:30:40.497Z,7.60
2022-09-28T05:33:38.397Z,8.50
2022-09-28T05:36:12.216Z,11.10
2022-09-28T05:38:39.977Z,7.10
2022-09-28T05:41:07.721Z,9.10
2022-09-28T05:43:36.265Z,9.50
2022-09-28T05:46:06.739Z,6.60
2022-09-28T05:48:36.857Z,8.00
2022-09-28T05:51:04.686Z,8.60
2022-09-28T05:53:32.428Z,9.20
2022-09-28T05:56:00.345Z,8.00
2022-09-28T05:58:29.002Z,10.60
2022-09-28T06:00:58.487Z,11.50
2022-09-28T06:03:26.340Z,12.10
2022-09-28T06:05:55.142Z,10.30
2022-09-28T06:08:22.873Z,8.80
2022-09-28T06:11:01.842Z,9.30
2022-09-28T06:13:29.830Z,9.60
2022-09-28T06:15:57.606Z,11.40
2022-09-28T06:18:26.838Z,10.50
2022-09-28T06:21:13.646Z,11.80
2022-09-28T06:23:49.035Z,10.20
2022-09-28T06:26:17.723Z,9.90
2022-09-28T06:28:46.071Z,9.40
2022-09-28T06:31:13.840Z,11.30
2022-09-28T06:33:47.979Z,8.70
2022-09-28T06:36:17.069Z,11.30
2022-09-28T06:38:45.255Z,12.80
2022-09-28T06:41:14.844Z,8.80
2022-09-28T06:43:43.541Z,11.30
2022-09-28T06:46:14.415Z,12.30
2022-09-28T06:48:51.276Z,12.80
2022-09-28T06:51:38.892Z,10.40
2022-09-28T06:54:19.789Z,12.90
2022-09-28T06:56:58.544Z,20.10
2022-09-28T06:59:26.251Z,26.60
2022-09-28T07:01:54.520Z,18.90
2022-09-28T07:04:43.326Z,20.70
2022-09-28T07:07:34.077Z,23.30
2022-09-28T07:10:28.396Z,13.30
2022-09-28T07:13:43.789Z,11.60
2022-09-28T07:16:07.863Z,12.20
2022-09-28T07:18:36.317Z,9.10
2022-09-28T07:21:08.312Z,11.70
2022-09-28T07:23:48.716Z,8.80
2022-09-28T07:26:25.975Z,10.00
2022-09-28T07:29:04.874Z,17.90
2022-09-28T07:31:42.915Z,10.60
2022-09-28T07:34:43.791Z,10.60
2022-09-28T07:37:27.906Z,11.20
2022-09-28T07:40:14.897Z,10.10
2022-09-28T07:42:42.715Z,14.10
2022-09-28T07:45:11.916Z,6.70
2022-09-28T07:47:39.937Z,9.50
2022-09-28T07:50:29.457Z,8.70
2022-09-28T07:53:28.443Z,10.00
2022-09-28T07:56:17.407Z,8.20
2022-09-28T07:58:57.896Z,9.40
2022-09-28T08:01:51.890Z,8.00
2022-09-28T08:04:20.530Z,10.30
2022-09-28T08:06:48.397Z,7.10
2022-09-28T08:09:16.229Z,5.90
2022-09-28T08:12:07.709Z,6.80
2022-09-28T08:14:41.554Z,7.90
2022-09-28T08:17:29.442Z,8.90
2022-09-28T08:20:18.741Z,13.70
2022-09-28T08:22:47.197Z,8.00
2022-09-28T08:25:15.055Z,9.80
2022-09-28T08:27:42.704Z,9.50
2022-09-28T08:30:11.666Z,5.30
2022-09-28T08:32:52.520Z,10.10
2022-09-28T08:35:40.901Z,6.30
2022-09-28T08:38:14.826Z,7.90
2022-09-28T08:41:45.702Z,6.60
2022-09-28T08:48:23.895Z,5.20
2022-09-28T08:51:28.239Z,5.90
2022-09-28T08:54:41.685Z,6.90
2022-09-28T08:57:26.601Z,8.90
2022-09-28T08:59:59.778Z,6.70
2022-09-28T09:02:39.796Z,9.00
2022-09-28T09:05:41.184Z,10.10
2022-09-28T09:08:33.663Z,8.60
2022-09-28T09:11:21.110Z,6.00
2022-09-28T09:14:15.505Z,4.90
2022-09-28T09:17:03.167Z,6.80
2022-09-28T09:20:13.277Z,9.60
2022-09-28T09:23:17.744Z,6.00
2022-09-28T09:25:57.152Z,3.60
2022-09-28T09:28:40.245Z,7.60
2022-09-28T09:31:26.766Z,8.70
2022-09-28T09:34:32.543Z,6.60
2022-09-28T09:38:14.371Z,6.70
2022-09-28T09:41:35.294Z,4.60
2022-09-28T09:44:52.392Z,4.60
2022-09-28T09:47:56.289Z,6.80
2022-09-28T09:50:57.896Z,5.90
2022-09-28T09:53:53.379Z,6.20
2022-09-28T09:56:48.813Z,7.90
2022-09-28T09:59:43.086Z,4.20
2022-09-28T10:02:46.212Z,4.90
2022-09-28T10:05:35.940Z,6.20
2022-09-28T10:08:14.592Z,5.20
2022-09-28T10:11:02.383Z,5.60
2022-09-28T10:13:32.126Z,6.90
2022-09-28T10:16:02.955Z,4.70
2022-09-28T10:18:37.561Z,4.30
2022-09-28T10:21:31.509Z,6.60
2022-09-28T10:24:25.899Z,4.70
2022-09-28T10:26:56.270Z,4.90
2022-09-28T10:29:26.588Z,5.60
2022-09-28T10:31:54.627Z,4.70
2022-09-28T10:34:40.146Z,5.40
2022-09-28T10:37:12.224Z,4.00
2022-09-28T10:40:37.865Z,3.70
2022-09-28T10:43:20.340Z,4.80
2022-09-28T10:46:05.426Z,5.40
2022-09-28T10:49:15.454Z,3.60
2022-09-28T10:51:51.717Z,3.20
2022-09-28T10:54:28.883Z,6.30
2022-09-28T10:56:59.858Z,4.60
2022-09-28T10:59:47.785Z,3.70
2022-09-28T11:02:41.034Z,5.40
2022-09-28T11:05:27.653Z,4.50
2022-09-28T11:08:02.736Z,6.10
2022-09-28T11:10:35.668Z,5.40
2022-09-28T11:13:10.325Z,2.00
2022-09-28T11:15:44.102Z,3.80
2022-09-28T11:18:28.174Z,3.40
2022-09-28T11:23:44.871Z,2.00
2022-09-28T11:26:19.049Z,3.60
2022-09-28T11:28:52.942Z,2.30
2022-09-28T11:31:30.319Z,2.90
2022-09-28T11:34:57.533Z,5.90
2022-09-28T11:38:29.432Z,3.40
2022-09-28T11:42:16.265Z,4.50
2022-09-28T11:44:49.443Z,4.20
2022-09-28T11:47:46.218Z,4.10
2022-09-28T11:50:43.384Z,4.30
2022-09-28T11:53:42.513Z,5.20
2022-09-28T11:56:40.002Z,3.40
2022-09-28T11:59:30.425Z,2.40
2022-09-28T12:02:15.634Z,6.30
2022-09-28T12:05:17.084Z,5.50
2022-09-28T12:07:55.703Z,5.70
2022-09-28T12:10:55.422Z,4.50
2022-09-28T12:13:38.974Z,3.30
2022-09-28T12:16:45.682Z,5.40
2022-09-28T12:19:20.823Z,4.50
2022-09-28T12:21:59.616Z,3.40
2022-09-28T12:24:47.478Z,5.00
2022-09-28T12:27:31.941Z,2.30
2022-09-28T12:30:22.258Z,5.20
2022-09-28T12:33:16.821Z,5.60
2022-09-28T12:36:30.159Z,3.00
2022-09-28T12:39:35.587Z,4.40
2022-09-28T12:42:45.957Z,5.40
2022-09-28T12:46:06.780Z,3.50
2022-09-28T12:49:40.983Z,2.60
2022-09-28T12:52:00.339Z,3.80
2022-09-28T12:55:02.415Z,4.80
2022-09-28T12:57:36.545Z,3.80
2022-09-28T13:00:13.713Z,5.30
2022-09-28T13:02:59.836Z,4.70
2022-09-28T13:06:09.150Z,8.50
2022-09-28T13:09:16.731Z,6.50
2022-09-28T13:12:15.643Z,4.70
2022-09-28T13:15:29.402Z,3.60
2022-09-28T13:18:18.173Z,3.20
2022-09-28T13:21:28.769Z,5.10
2022-09-28T13:24:27.861Z,4.30
2022-09-28T13:26:55.802Z,3.60
2022-09-28T13:29:25.531Z,3.20
2022-09-28T13:31:59.893Z,3.00
2022-09-28T13:34:32.938Z,3.60
2022-09-28T13:37:21.847Z,9.20
2022-09-28T13:39:56.449Z,4.40
2022-09-28T13:42:45.773Z,6.20
2022-09-28T13:45:22.434Z,3.40
2022-09-28T13:48:24.848Z,3.40
2022-09-28T13:51:13.427Z,3.30
2022-09-28T13:54:02.714Z,3.60
2022-09-28T13:56:44.884Z,3.70
2022-09-28T13:59:25.589Z,5.70
2022-09-28T14:02:28.472Z,4.30
2022-09-28T14:05:26.312Z,5.40
2022-09-28T14:08:11.128Z,2.90
2022-09-28T14:10:53.011Z,5.30
2022-09-28T14:13:45.339Z,5.30
2022-09-28T14:16:21.908Z,5.30
2022-09-28T14:18:57.693Z,2.40
2022-09-28T14:22:47.377Z,2.80
2022-09-28T14:25:30.335Z,2.40
2022-09-28T14:28:19.106Z,2.10
2022-09-28T14:30:53.060Z,4.70
2022-09-28T14:33:20.629Z,3.10
2022-09-28T14:36:05.033Z,3.10
2022-09-28T14:39:03.179Z,5.10
2022-09-28T14:41:36.084Z,4.70
2022-09-28T14:44:08.274Z,2.00
2022-09-28T14:46:47.765Z,4.10
2022-09-28T14:49:19.146Z,3.40
2022-09-28T14:51:52.839Z,3.10
2022-09-28T14:54:22.759Z,2.90
2022-09-28T14:56:53.337Z,4.60
2022-09-28T14:59:38.671Z,4.70
2022-09-28T15:02:15.394Z,2.50
2022-09-28T15:04:59.867Z,3.40
2022-09-28T15:07:42.279Z,2.90
2022-09-28T15:10:31.756Z,5.70
2022-09-28T15:13:05.936Z,3.10
2022-09-28T15:15:41.055Z,2.70
2022-09-28T15:18:43.696Z,2.40
2022-09-28T15:21:12.846Z,3.60
2022-09-28T15:23:43.981Z,4.60
2022-09-28T15:26:34.597Z,5.30
2022-09-28T15:29:05.067Z,1.20
2022-09-28T15:31:36.048Z,2.10
2022-09-28T15:34:22.321Z,3.30
2022-09-28T15:36:50.088Z,4.30
2022-09-28T15:39:35.856Z,2.50
2022-09-28T15:42:06.150Z,1.80
2022-09-28T15:44:44.521Z,1.70
2022-09-28T15:47:25.163Z,2.40
2022-09-28T15:50:05.736Z,2.20
2022-09-28T15:52:47.082Z,2.20
2022-09-28T15:55:36.108Z,2.00
2022-09-28T15:58:21.241Z,1.40
2022-09-28T16:00:51.632Z,2.10
2022-09-28T16:03:31.205Z,2.10
2022-09-28T16:05:58.763Z,2.70
2022-09-28T16:08:46.099Z,2.80
2022-09-28T16:11:20.032Z,0.70
2022-09-28T16:13:53.713Z,2.50
2022-09-28T16:16:29.801Z,2.80
2022-09-28T16:19:01.045Z,2.40
2022-09-28T16:24:08.470Z,2.50
2022-09-28T16:26:38.926Z,3.10
2022-09-28T16:29:39.919Z,1.80
2022-09-28T16:32:26.081Z,3.50
2022-09-28T16:35:22.546Z,1.60
2022-09-28T16:38:09.760Z,4.30
2022-09-28T16:40:49.543Z,7.20
2022-09-28T16:43:30.198Z,5.90
2022-09-28T16:46:12.017Z,3.70
2022-09-28T16:48:49.138Z,4.10
2022-09-28T16:51:18.387Z,3.90
2022-09-28T16:54:04.808Z,3.70
2022-09-28T16:56:34.462Z,5.10
2022-09-28T16:59:03.238Z,4.00
2022-09-28T17:01:31.328Z,4.00
2022-09-28T17:03:59.125Z,4.40
2022-09-28T17:06:27.500Z,4.20
2022-09-28T17:08:56.627Z,5.00
2022-09-28T17:11:25.241Z,4.40
2022-09-28T17:13:58.988Z,3.50
2022-09-28T17:16:59.958Z,5.50
2022-09-28T17:19:24.648Z,4.60
2022-09-28T17:21:53.378Z,6.70
2022-09-28T17:24:21.423Z,10.70
2022-09-28T17:26:51.792Z,13.20
2022-09-28T17:29:19.836Z,13.40
2022-09-28T17:31:48.138Z,10.80
2022-09-28T17:34:16.562Z,11.50
2022-09-28T17:36:45.243Z,13.10
2022-09-28T17:39:19.033Z,12.90
2022-09-28T17:41:47.078Z,11.20
2022-09-28T17:44:18.036Z,10.50
2022-09-28T17:46:48.929Z,10.60
2022-09-28T17:49:17.142Z,9.40
2022-09-28T17:51:44.955Z,10.60
2022-09-28T17:54:19.296Z,6.80
2022-09-28T17:56:47.022Z,6.70
2022-09-28T17:59:18.934Z,4.40
2022-09-28T18:01:48.274Z,4.80
2022-09-28T18:04:39.664Z,3.30
2022-09-28T18:07:04.922Z,3.90
2022-09-28T18:09:32.609Z,3.90
2022-09-28T18:12:04.653Z,6.10
2022-09-28T18:14:32.842Z,7.80
2022-09-28T18:17:00.581Z,5.30
2022-09-28T18:19:32.403Z,3.60
2022-09-28T18:22:01.396Z,6.70
2022-09-28T18:24:29.840Z,9.60
2022-09-28T18:26:57.678Z,8.70
2022-09-28T18:29:26.225Z,3.70
2022-09-28T18:31:55.741Z,5.30
2022-09-28T18:34:23.483Z,9.70
2022-09-28T18:36:51.268Z,9.10
2022-09-28T18:39:19.041Z,9.30
2022-09-28T18:41:46.839Z,10.30
2022-09-28T18:44:14.986Z,10.10
2022-09-28T18:46:43.528Z,10.00
2022-09-28T18:49:11.630Z,6.60
2022-09-28T18:51:39.509Z,9.20
2022-09-28T18:54:07.725Z,9.10
2022-09-28T18:56:37.248Z,8.90
2022-09-28T18:59:11.762Z,7.90
2022-09-28T19:01:41.990Z,9.90
2022-09-28T19:04:11.394Z,8.20
2022-09-28T19:06:41.683Z,10.20
2022-09-28T19:09:09.523Z,12.40
2022-09-28T19:11:37.227Z,20.80
2022-09-28T19:14:04.976Z,17.20
2022-09-28T19:16:34.061Z,17.50
2022-09-28T19:19:03.109Z,12.90
2022-09-28T19:21:31.275Z,11.30
2022-09-28T19:24:03.541Z,10.90
2022-09-28T19:26:32.986Z,12.30
2022-09-28T19:29:02.839Z,11.60
2022-09-28T19:31:30.997Z,9.30
2022-09-28T19:33:59.245Z,9.30
2022-09-28T19:36:28.521Z,8.60
2022-09-28T19:38:58.918Z,8.30
2022-09-28T19:41:43.358Z,12.80
2022-09-28T19:44:25.719Z,10.30
2022-09-28T19:47:06.679Z,8.90
2022-09-28T19:49:39.081Z,12.60
2022-09-28T19:52:16.515Z,6.00
2022-09-28T19:54:57.372Z,9.80
2022-09-28T19:57:32.524Z,9.90
2022-09-28T20:00:03.522Z,7.20
2022-09-28T20:02:36.003Z,5.70
2022-09-28T20:05:03.944Z,9.00
2022-09-28T20:07:33.322Z,8.10
2022-09-28T20:10:01.052Z,6.80
2022-09-28T20:12:28.781Z,8.60
2022-09-28T20:14:56.539Z,11.10
2022-09-28T20:17:24.217Z,9.60
2022-09-28T20:19:51.913Z,9.20
2022-09-28T20:22:20.050Z,15.50
2022-09-28T20:24:47.976Z,12.20
2022-09-28T20:27:15.888Z,14.50
2022-09-28T20:29:43.578Z,17.70
2022-09-28T20:32:11.593Z,22.10
2022-09-28T20:34:39.292Z,20.30
2022-09-28T20:37:06.930Z,18.50
2022-09-28T20:39:34.663Z,12.30
2022-09-28T20:42:02.855Z,11.40
2022-09-28T20:44:31.230Z,10.20
2022-09-28T20:46:59.566Z,9.00
2022-09-28T20:49:28.101Z,7.10
2022-09-28T20:51:55.865Z,8.70
2022-09-28T20:54:23.691Z,8.20
2022-09-28T20:56:51.710Z,8.30
2022-09-28T20:59:22.622Z,8.50
2022-09-28T21:01:50.939Z,7.50
2022-09-28T21:04:19.509Z,7.10
2022-09-28T21:06:47.655Z,7.30
2022-09-28T21:09:15.282Z,7.00
2022-09-28T21:11:43.012Z,9.60
2022-09-28T21:14:10.865Z,7.20
2022-09-28T21:16:39.072Z,7.40
2022-09-28T21:19:06.890Z,7.70
2022-09-28T21:21:34.758Z,9.70
2022-09-28T21:24:02.698Z,9.40
2022-09-28T21:26:31.343Z,7.30
2022-09-28T21:29:00.942Z,9.80
2022-09-28T21:31:47.451Z,7.70
2022-09-28T21:34:20.855Z,7.60
2022-09-28T21:36:51.192Z,6.70
2022-09-28T21:39:20.209Z,7.50
2022-09-28T21:41:48.067Z,9.00
2022-09-28T21:44:15.945Z,4.40
2022-09-28T21:46:43.663Z,5.00
2022-09-28T21:49:12.543Z,7.60
2022-09-28T21:51:40.267Z,5.50
2022-09-28T21:54:08.509Z,6.00
2022-09-28T21:56:36.203Z,8.60
2022-09-28T21:59:03.837Z,6.90
2022-09-28T22:01:31.780Z,6.50
2022-09-28T22:03:59.929Z,6.60
2022-09-28T22:06:28.177Z,7.40
2022-09-28T22:08:57.051Z,6.30
2022-09-28T22:11:28.327Z,5.50
2022-09-28T22:13:59.618Z,5.50
2022-09-28T22:16:30.662Z,5.90
2022-09-28T22:18:59.644Z,5.20
2022-09-28T22:21:31.986Z,6.70
2022-09-28T22:24:07.030Z,7.80
2022-09-28T22:26:37.081Z,6.00
2022-09-28T22:29:08.597Z,5.20
2022-09-28T22:31:40.840Z,7.10
2022-09-28T22:34:09.984Z,6.00
2022-09-28T22:36:37.685Z,6.40
2022-09-28T22:39:05.652Z,4.80
2022-09-28T22:41:33.497Z,4.80
2022-09-28T22:44:01.597Z,4.50
2022-09-28T22:46:31.840Z,5.40
2022-09-28T22:49:00.681Z,6.60
2022-09-28T22:51:30.781Z,5.90
2022-09-28T22:53:59.152Z,4.90
2022-09-28T22:56:27.219Z,5.60
2022-09-28T22:58:55.370Z,5.30
2022-09-28T23:01:30.078Z,4.60
2022-09-28T23:03:59.372Z,7.80
2022-09-28T23:06:30.221Z,5.50
2022-09-28T23:08:58.046Z,9.70
2022-09-28T23:11:25.851Z,7.80
2022-09-28T23:13:57.443Z,6.60
2022-09-28T23:18:56.176Z,4.60
2022-09-28T23:21:26.442Z,4.90
2022-09-28T23:23:58.418Z,6.70
2022-09-28T23:26:32.582Z,5.10
2022-09-28T23:29:00.732Z,5.10
2022-09-28T23:31:33.019Z,6.50
2022-09-28T23:34:05.910Z,5.50
2022-09-28T23:36:34.639Z,5.60
2022-09-28T23:39:03.542Z,5.40
2022-09-28T23:41:31.252Z,4.60
2022-09-28T23:43:58.901Z,7.30
2022-09-28T23:46:26.707Z,7.40
2022-09-28T23:48:54.474Z,4.30
2022-09-28T23:51:22.294Z,5.60
2022-09-28T23:53:49.986Z,5.30
2022-09-28T23:56:17.674Z,5.30
2022-09-28T23:58:45.896Z,5.40
